Time;durP1;ratioP1;P1;durP2;ratioP2;P2;SDS_P1;SDS_P2;PMS_P1;PMS_P2;Temp;Humidity;BMP_temperature;BMP_pressure;BME280_temperature;BME280_humidity;BME280_pressure;Samples;Min_cycle;Max_cycle;Signal;HPM_P1;HPM_P2
2021/12/24 00:00:44;;;;;;;27.60;16.48;;;9.60;99.90;;;;;;4941518;29;20178;-77
2021/12/24 00:03:12;;;;;;;29.95;17.80;;;9.50;99.90;;;;;;4941516;29;20215;-77
2021/12/24 00:05:37;;;;;;;30.85;16.25;;;9.60;99.90;;;;;;4940926;29;20178;-76
2021/12/24 00:08:04;;;;;;;27.48;16.23;;;9.50;99.90;;;;;;4955644;28;20201;-77
2021/12/24 00:10:32;;;;;;;25.95;15.38;;;9.50;99.90;;;;;;4940811;29;20226;-77
2021/12/24 00:13:03;;;;;;;22.50;15.48;;;9.50;99.90;;;;;;4941189;29;20262;-77
2021/12/24 00:37:09;;;;;;;31.70;14.80;;;9.70;99.90;;;;;;4940826;29;20207;-76
2021/12/24 00:39:42;;;;;;;32.35;15.73;;;9.80;99.90;;;;;;4940772;29;20195;-77
2021/12/24 00:42:09;;;;;;;22.27;13.70;;;9.80;99.90;;;;;;4940780;29;20226;-77
2021/12/24 00:44:34;;;;;;;23.88;13.65;;;9.80;99.90;;;;;;4938672;29;20707;-77
2021/12/24 00:47:01;;;;;;;27.67;14.50;;;9.80;99.90;;;;;;4937720;29;20203;-77
2021/12/24 00:49:27;;;;;;;20.80;13.77;;;9.80;99.90;;;;;;4937661;29;20588;-77
2021/12/24 00:57:21;;;;;;;24.98;12.93;;;9.90;99.90;;;;;;4947519;29;20543;-77
2021/12/24 00:59:46;;;;;;;19.77;12.23;;;9.70;99.90;;;;;;4938132;29;20163;-77
2021/12/24 01:02:12;;;;;;;21.92;13.45;;;9.70;99.90;;;;;;4938636;29;20250;-78
2021/12/24 01:04:38;;;;;;;26.05;13.52;;;9.80;99.90;;;;;;4937745;29;20167;-77
2021/12/24 01:07:04;;;;;;;20.00;13.35;;;10.00;99.90;;;;;;4937862;29;20680;-77
2021/12/24 01:09:29;;;;;;;23.38;13.77;;;10.00;99.90;;;;;;4937923;29;20195;-78
2021/12/24 01:11:56;;;;;;;27.30;13.70;;;9.90;99.90;;;;;;4937589;29;20246;-77
2021/12/24 01:14:22;;;;;;;22.95;13.73;;;9.80;99.90;;;;;;4937557;29;20191;-77
2021/12/24 01:17:04;;;;;;;34.63;13.80;;;9.80;99.90;;;;;;4937570;29;20168;-77
2021/12/24 01:19:29;;;;;;;25.73;13.90;;;9.90;99.90;;;;;;4937470;29;20191;-77
2021/12/24 01:24:46;;;;;;;20.42;13.38;;;10.00;99.90;;;;;;4936946;29;20190;-78
2021/12/24 01:28:32;;;;;;;16.35;12.70;;;10.00;99.90;;;;;;4937411;28;20194;-80
2021/12/24 01:37:51;;;;;;;22.90;13.57;;;10.10;99.90;;;;;;4936458;28;20171;-78
2021/12/24 01:38:33;;;;;;;25.17;15.02;;;10.10;99.90;;;;;;4936675;29;20249;-77
2021/12/24 01:43:28;;;;;;;29.23;14.50;;;10.10;99.90;;;;;;4937090;29;20540;-77
2021/12/24 01:45:55;;;;;;;20.27;14.27;;;10.00;99.90;;;;;;4936848;29;20175;-77
2021/12/24 01:48:22;;;;;;;25.75;14.77;;;10.00;99.90;;;;;;4936688;29;20234;-77
2021/12/24 01:50:49;;;;;;;29.80;14.82;;;10.00;99.90;;;;;;4936627;29;20266;-77
2021/12/24 01:53:17;;;;;;;25.83;14.40;;;10.10;99.90;;;;;;4951365;28;20218;-77
2021/12/24 01:55:44;;;;;;;22.55;13.82;;;10.10;99.90;;;;;;4935992;29;20250;-77
2021/12/24 01:58:10;;;;;;;23.80;13.82;;;10.10;99.90;;;;;;4936112;29;20652;-77
2021/12/24 02:00:38;;;;;;;28.33;15.30;;;10.00;99.90;;;;;;4951375;28;20179;-77
2021/12/24 02:03:06;;;;;;;25.02;14.45;;;10.10;99.90;;;;;;4936577;29;20242;-77
2021/12/24 02:05:32;;;;;;;29.05;14.60;;;10.20;99.90;;;;;;4936882;29;20191;-77
2021/12/24 02:08:02;;;;;;;31.75;15.27;;;10.10;99.90;;;;;;4951064;28;20237;-76
2021/12/24 02:10:28;;;;;;;21.73;15.18;;;10.10;99.90;;;;;;4936355;29;20250;-77
2021/12/24 02:12:54;;;;;;;26.20;15.65;;;10.10;99.90;;;;;;4936510;29;20172;-77
2021/12/24 02:15:31;;;;;;;26.55;15.93;;;10.20;99.90;;;;;;4936518;29;20172;-77
2021/12/24 02:28:39;;;;;;;31.40;15.25;;;10.10;99.90;;;;;;4936433;29;20229;-77
2021/12/24 02:31:10;;;;;;;24.80;14.77;;;10.20;99.90;;;;;;4936083;29;20234;-77
2021/12/24 02:33:36;;;;;;;28.98;15.80;;;10.10;99.90;;;;;;4935934;29;20159;-77
2021/12/24 02:36:02;;;;;;;32.13;14.52;;;10.20;99.90;;;;;;4935833;29;20176;-77
2021/12/24 02:38:28;;;;;;;31.48;16.00;;;10.30;99.90;;;;;;4935345;29;20259;-77
2021/12/24 02:40:54;;;;;;;24.05;13.93;;;10.50;99.90;;;;;;4935878;29;20632;-77
2021/12/24 02:43:22;;;;;;;30.38;14.90;;;10.40;99.90;;;;;;4935836;29;20214;-77
2021/12/24 02:45:50;;;;;;;26.67;14.30;;;10.30;99.90;;;;;;4935495;29;20175;-77
2021/12/24 02:56:19;;;;;;;29.55;14.52;;;10.40;99.90;;;;;;4935395;29;20178;-77
2021/12/24 02:58:47;;;;;;;26.27;13.95;;;10.40;99.90;;;;;;4935346;28;20282;-77
2021/12/24 03:01:16;;;;;;;27.25;14.70;;;10.40;99.90;;;;;;4935403;29;20167;-77
2021/12/24 03:03:44;;;;;;;28.38;13.77;;;10.50;99.90;;;;;;4935511;29;20226;-77
2021/12/24 03:06:10;;;;;;;25.92;15.27;;;10.40;99.90;;;;;;4950054;28;20212;-77
2021/12/24 03:08:35;;;;;;;29.88;14.07;;;10.50;99.90;;;;;;4934584;29;20223;-77
2021/12/24 03:11:01;;;;;;;28.20;15.00;;;10.40;99.90;;;;;;4935163;29;20225;-77
2021/12/24 03:13:28;;;;;;;31.20;13.65;;;10.20;99.90;;;;;;4935066;29;20242;-77
2021/12/24 03:15:57;;;;;;;26.70;13.45;;;10.10;99.90;;;;;;4935246;29;20310;-77
2021/12/24 03:18:27;;;;;;;26.65;13.85;;;10.10;99.90;;;;;;4935209;29;20648;-77
2021/12/24 03:21:04;;;;;;;34.92;15.38;;;10.30;99.90;;;;;;4935057;29;20641;-77
2021/12/24 03:23:39;;;;;;;18.80;12.32;;;10.30;99.90;;;;;;4935230;29;20159;-78
2021/12/24 03:26:07;;;;;;;29.15;14.48;;;10.40;99.90;;;;;;4935447;29;20197;-77
2021/12/24 03:28:32;;;;;;;21.70;13.05;;;10.50;99.90;;;;;;4935193;29;20187;-77
2021/12/24 03:30:59;;;;;;;22.95;13.98;;;10.50;99.90;;;;;;4934971;29;20218;-77
2021/12/24 03:33:25;;;;;;;25.92;13.85;;;10.70;99.90;;;;;;4935329;29;20179;-77
2021/12/24 03:35:51;;;;;;;30.00;13.43;;;10.60;99.90;;;;;;4934712;29;20560;-77
2021/12/24 03:38:17;;;;;;;32.25;13.98;;;10.70;99.90;;;;;;4934881;29;20277;-76
2021/12/24 03:40:42;;;;;;;29.63;14.32;;;10.50;99.90;;;;;;4934626;29;20175;-77
2021/12/24 03:43:08;;;;;;;23.73;12.88;;;10.60;99.90;;;;;;4934962;29;20195;-77
2021/12/24 03:45:42;;;;;;;35.33;14.95;;;10.70;99.90;;;;;;4935049;29;20174;-76
2021/12/24 03:48:17;;;;;;;25.88;14.32;;;10.60;99.90;;;;;;4934903;29;20530;-77
2021/12/24 03:50:53;;;;;;;39.20;15.23;;;10.50;99.90;;;;;;4934752;29;20214;-77
2021/12/24 03:56:03;;;;;;;34.60;15.07;;;10.60;99.90;;;;;;4935161;29;20716;-77
2021/12/24 03:58:29;;;;;;;39.92;14.77;;;10.80;99.90;;;;;;4934612;29;20274;-77
2021/12/24 04:00:55;;;;;;;36.83;15.10;;;10.70;99.90;;;;;;4934679;29;20175;-77
2021/12/24 04:03:21;;;;;;;27.85;14.32;;;10.50;99.90;;;;;;4934714;29;20625;-78
2021/12/24 04:05:46;;;;;;;31.00;14.32;;;10.60;99.90;;;;;;4935068;28;20214;-78
2021/12/24 04:08:13;;;;;;;32.65;14.40;;;10.60;99.90;;;;;;4934726;29;20633;-77
2021/12/24 04:10:40;;;;;;;39.15;14.32;;;10.60;99.90;;;;;;4934527;29;20569;-77
2021/12/24 04:13:07;;;;;;;41.80;14.13;;;10.50;99.90;;;;;;4934871;29;20189;-77
2021/12/24 04:15:37;;;;;;;29.67;14.27;;;10.40;99.90;;;;;;4934945;29;20254;-77
2021/12/24 04:18:13;;;;;;;30.88;13.13;;;10.40;99.90;;;;;;4934755;29;20274;-77
2021/12/24 04:26:07;;;;;;;31.48;12.65;;;10.30;99.90;;;;;;4938322;29;20298;-78
2021/12/24 04:28:32;;;;;;;33.80;13.07;;;10.30;99.90;;;;;;4938334;29;20672;-77
2021/12/24 04:31:00;;;;;;;23.92;13.18;;;10.40;99.90;;;;;;4937779;29;20221;-77
2021/12/24 04:33:37;;;;;;;34.30;14.48;;;10.50;99.90;;;;;;4938730;29;20234;-77
2021/12/24 04:38:58;;;;;;;23.38;13.35;;;10.40;99.90;;;;;;4938183;29;20241;-77
2021/12/24 05:03:12;;;;;;;36.63;14.85;;;10.70;99.90;;;;;;4936437;29;20217;-78
2021/12/24 05:05:48;;;;;;;34.20;15.07;;;10.60;99.90;;;;;;4937712;29;20195;-78
2021/12/24 05:08:26;;;;;;;35.45;14.50;;;10.50;99.90;;;;;;4937251;29;20206;-78
2021/12/24 05:10:52;;;;;;;37.22;14.35;;;10.50;99.90;;;;;;4937403;29;20236;-78
2021/12/24 05:13:21;;;;;;;31.50;14.43;;;10.40;99.90;;;;;;4937534;29;20576;-82
2021/12/24 05:15:51;;;;;;;28.92;14.95;;;10.50;99.90;;;;;;4937169;29;20163;-78
2021/12/24 05:23:44;;;;;;;28.48;14.65;;;10.50;99.90;;;;;;4937446;29;20182;-78
2021/12/24 05:26:12;;;;;;;38.50;15.70;;;10.60;99.90;;;;;;4937453;29;20167;-78
2021/12/24 05:28:38;;;;;;;33.72;14.63;;;10.70;99.90;;;;;;4937031;29;20250;-82
2021/12/24 05:31:04;;;;;;;39.33;15.13;;;10.60;99.90;;;;;;4936785;29;20207;-78
2021/12/24 05:33:30;;;;;;;32.60;14.25;;;10.50;99.90;;;;;;4937097;29;20191;-78
2021/12/24 05:35:56;;;;;;;36.47;14.55;;;10.40;99.90;;;;;;4952277;28;20175;-82
2021/12/24 05:38:22;;;;;;;40.28;15.88;;;10.50;99.90;;;;;;4936779;29;20678;-78
2021/12/24 05:40:48;;;;;;;30.70;14.30;;;10.40;99.90;;;;;;4936817;29;20184;-77
2021/12/24 05:43:13;;;;;;;32.33;14.63;;;10.40;99.90;;;;;;4936832;29;20174;-78
2021/12/24 05:45:40;;;;;;;31.75;14.77;;;10.20;99.90;;;;;;4951576;28;20233;-78
2021/12/24 05:48:05;;;;;;;34.13;16.17;;;10.30;99.90;;;;;;4937208;29;20191;-77
2021/12/24 05:50:31;;;;;;;26.40;13.07;;;10.40;99.90;;;;;;4936724;29;20198;-78
2021/12/24 05:52:57;;;;;;;30.90;15.07;;;10.30;99.90;;;;;;4936656;29;20270;-79
2021/12/24 05:55:23;;;;;;;32.33;14.75;;;10.40;99.90;;;;;;4936613;29;20175;-78
2021/12/24 05:57:49;;;;;;;31.25;15.27;;;10.40;99.90;;;;;;4936705;29;20218;-78
2021/12/24 06:00:15;;;;;;;34.83;14.82;;;10.50;99.90;;;;;;4936320;29;20262;-78
2021/12/24 06:02:41;;;;;;;27.33;14.80;;;10.50;99.90;;;;;;4936105;29;20193;-78
2021/12/24 06:05:07;;;;;;;38.28;14.38;;;10.60;99.90;;;;;;4936751;29;20640;-79
2021/12/24 06:07:33;;;;;;;28.02;14.02;;;10.60;99.90;;;;;;4936532;29;20172;-78
2021/12/24 06:10:00;;;;;;;29.17;14.15;;;10.70;99.90;;;;;;4936064;29;20182;-78
2021/12/24 06:12:25;;;;;;;28.65;13.57;;;10.80;99.90;;;;;;4950951;28;20684;-78
2021/12/24 06:14:54;;;;;;;23.00;14.07;;;10.80;99.90;;;;;;4936011;29;20215;-78
2021/12/24 06:17:22;;;;;;;36.03;14.65;;;10.80;99.90;;;;;;4936035;29;20226;-78
2021/12/24 06:19:48;;;;;;;27.88;14.73;;;10.70;99.90;;;;;;4936063;29;20171;-78
2021/12/24 06:22:14;;;;;;;25.35;13.70;;;10.80;99.90;;;;;;4936109;29;20659;-78
2021/12/24 06:24:40;;;;;;;37.38;14.90;;;10.70;99.90;;;;;;4935877;29;20218;-79
2021/12/24 06:27:05;;;;;;;32.92;13.23;;;10.70;99.90;;;;;;4935968;29;20591;-78
2021/12/24 06:29:31;;;;;;;39.70;14.38;;;10.60;99.90;;;;;;4936015;29;20222;-80
2021/12/24 06:31:57;;;;;;;24.00;12.60;;;10.70;99.90;;;;;;4936032;29;20253;-78
2021/12/24 06:34:23;;;;;;;32.95;14.32;;;10.50;99.90;;;;;;4936147;29;20175;-78
2021/12/24 06:36:51;;;;;;;32.00;14.18;;;10.40;99.90;;;;;;4935697;29;20175;-79
2021/12/24 06:39:16;;;;;;;30.77;14.10;;;10.60;99.90;;;;;;4935581;29;20187;-78
2021/12/24 06:41:43;;;;;;;41.45;15.88;;;10.70;99.90;;;;;;4935448;29;20647;-78
2021/12/24 06:44:12;;;;;;;25.20;13.90;;;10.60;99.90;;;;;;4935244;29;20179;-77
2021/12/24 06:46:40;;;;;;;26.55;14.52;;;10.40;99.90;;;;;;4935389;29;20174;-78
2021/12/24 06:49:06;;;;;;;34.42;14.57;;;10.30;99.90;;;;;;4935286;29;20199;-77
2021/12/24 06:51:32;;;;;;;34.15;15.35;;;10.60;99.90;;;;;;4935405;29;20207;-78
2021/12/24 06:53:58;;;;;;;35.40;14.32;;;10.70;99.90;;;;;;4935411;29;20187;-78
2021/12/24 06:56:24;;;;;;;43.70;15.35;;;10.70;99.90;;;;;;4935839;29;20246;-78
2021/12/24 06:58:50;;;;;;;32.20;13.98;;;10.60;99.90;;;;;;4935411;29;20691;-77
2021/12/24 07:01:16;;;;;;;37.55;14.38;;;10.60;99.90;;;;;;4935756;29;20175;-78
2021/12/24 07:03:42;;;;;;;30.83;15.05;;;10.50;99.90;;;;;;4935697;29;20163;-79
2021/12/24 07:06:08;;;;;;;28.90;13.93;;;10.50;99.90;;;;;;4935707;29;20174;-78
2021/12/24 07:08:34;;;;;;;31.25;14.00;;;10.60;99.90;;;;;;4935707;29;20218;-78
2021/12/24 07:10:59;;;;;;;28.40;12.75;;;10.50;99.90;;;;;;4935865;29;20199;-78
2021/12/24 07:13:26;;;;;;;21.38;13.00;;;10.40;99.90;;;;;;4935853;29;20234;-77
2021/12/24 07:15:53;;;;;;;32.13;12.88;;;10.10;99.90;;;;;;4938031;29;20172;-77
2021/12/24 07:18:19;;;;;;;28.20;13.70;;;10.20;99.90;;;;;;4951543;29;20196;-77
2021/12/24 07:20:45;;;;;;;23.20;12.32;;;10.40;99.90;;;;;;4937179;29;20625;-77
2021/12/24 07:23:11;;;;;;;37.03;14.70;;;10.40;99.90;;;;;;4936283;29;20186;-77
2021/12/24 07:25:37;;;;;;;23.58;12.38;;;10.30;99.90;;;;;;4935166;29;20175;-78
2021/12/24 07:28:03;;;;;;;22.83;11.52;;;10.30;99.90;;;;;;4935215;29;20218;-77
2021/12/24 07:30:30;;;;;;;31.60;11.93;;;10.30;99.90;;;;;;4934951;28;20521;-77
2021/12/24 07:32:55;;;;;;;28.92;13.10;;;10.30;99.90;;;;;;4934594;29;20250;-78
2021/12/24 07:35:21;;;;;;;24.83;12.68;;;10.30;99.90;;;;;;4937691;29;20687;-77
2021/12/24 07:37:47;;;;;;;21.00;10.27;;;10.30;99.90;;;;;;4935207;29;20194;-78
2021/12/24 07:40:15;;;;;;;21.50;11.80;;;10.30;99.90;;;;;;4935445;29;20657;-78
2021/12/24 07:42:45;;;;;;;19.90;12.05;;;10.10;99.90;;;;;;4934939;29;20212;-77
2021/12/24 07:45:12;;;;;;;20.95;11.48;;;10.20;99.90;;;;;;4934816;29;20163;-77
2021/12/24 07:47:41;;;;;;;26.17;12.68;;;10.40;99.90;;;;;;4934943;29;20163;-78
2021/12/24 07:50:18;;;;;;;22.13;12.77;;;10.40;99.90;;;;;;4950230;28;20199;-77
2021/12/24 07:52:44;;;;;;;26.35;14.60;;;10.40;99.90;;;;;;4935678;29;20732;-77
2021/12/24 07:55:10;;;;;;;23.27;14.05;;;10.20;99.90;;;;;;4938603;29;20226;-77
2021/12/24 07:57:37;;;;;;;24.63;13.32;;;10.20;99.90;;;;;;4938798;29;20202;-77
2021/12/24 08:00:08;;;;;;;24.48;12.95;;;10.30;99.90;;;;;;4938775;29;20172;-80
2021/12/24 08:02:34;;;;;;;25.23;13.57;;;10.20;99.90;;;;;;4938465;29;20163;-78
2021/12/24 08:04:59;;;;;;;21.23;13.20;;;10.10;99.90;;;;;;4938108;29;20162;-78
2021/12/24 08:07:27;;;;;;;27.08;13.88;;;10.10;99.90;;;;;;4938169;29;20178;-78
2021/12/24 08:09:53;;;;;;;22.00;13.55;;;9.90;99.90;;;;;;4938972;29;20226;-81
2021/12/24 08:12:20;;;;;;;26.50;13.25;;;9.90;99.90;;;;;;4948396;29;20207;-78
2021/12/24 08:14:46;;;;;;;36.88;13.70;;;10.00;99.90;;;;;;4956208;28;20171;-80
2021/12/24 08:17:12;;;;;;;25.95;14.43;;;9.90;99.90;;;;;;4939357;29;20167;-80
2021/12/24 08:19:38;;;;;;;31.33;13.77;;;10.20;99.90;;;;;;4938614;29;20185;-82
2021/12/24 08:22:04;;;;;;;29.98;13.43;;;10.10;99.90;;;;;;4938596;29;20247;-80
2021/12/24 08:24:31;;;;;;;25.02;12.82;;;10.30;99.90;;;;;;4938533;29;20182;-77
2021/12/24 08:26:57;;;;;;;29.02;13.38;;;10.20;99.90;;;;;;4938193;29;20163;-78
2021/12/24 08:29:23;;;;;;;25.20;14.05;;;10.30;99.90;;;;;;4938110;29;20202;-76
2021/12/24 08:31:50;;;;;;;21.08;13.95;;;10.10;99.90;;;;;;4937397;29;20203;-76
2021/12/24 08:34:17;;;;;;;24.98;14.68;;;10.00;99.90;;;;;;4938693;29;20175;-79
2021/12/24 08:36:44;;;;;;;27.77;13.80;;;9.90;99.90;;;;;;4953022;28;20187;-78
2021/12/24 08:39:09;;;;;;;27.65;13.50;;;10.10;99.90;;;;;;4938064;29;20190;-77
2021/12/24 08:41:35;;;;;;;29.92;15.00;;;10.10;99.90;;;;;;4937797;29;20179;-77
2021/12/24 08:44:02;;;;;;;29.98;14.10;;;10.20;99.90;;;;;;4937854;29;20183;-79
2021/12/24 08:46:28;;;;;;;26.08;13.25;;;10.20;99.90;;;;;;4955530;28;20246;-76
2021/12/24 08:48:53;;;;;;;29.48;14.05;;;10.00;99.90;;;;;;4937337;29;20645;-76
2021/12/24 08:51:19;;;;;;;28.15;13.35;;;10.00;99.90;;;;;;4937266;29;20207;-76
2021/12/24 08:53:45;;;;;;;31.65;15.10;;;10.10;99.90;;;;;;4937093;29;20266;-76
2021/12/24 08:56:10;;;;;;;28.45;14.68;;;10.20;99.90;;;;;;4937111;29;20474;-76
2021/12/24 08:58:37;;;;;;;25.30;12.68;;;10.20;99.90;;;;;;4937062;29;20195;-77
2021/12/24 09:01:04;;;;;;;27.45;14.10;;;10.20;99.90;;;;;;4936980;29;20217;-76
2021/12/24 09:03:30;;;;;;;27.35;13.68;;;10.20;99.90;;;;;;4937317;29;20182;-77
2021/12/24 09:05:55;;;;;;;44.65;15.15;;;10.10;99.90;;;;;;4936899;29;20271;-79
2021/12/24 09:08:21;;;;;;;41.58;14.55;;;10.00;99.90;;;;;;4937208;29;20191;-76
2021/12/24 09:10:47;;;;;;;40.92;16.80;;;10.00;99.90;;;;;;4937186;29;20213;-76
2021/12/24 09:13:12;;;;;;;35.40;15.73;;;10.10;99.90;;;;;;4937354;29;20182;-76
2021/12/24 09:15:40;;;;;;;30.50;14.65;;;10.20;99.90;;;;;;4937309;29;20633;-77
2021/12/24 09:18:06;;;;;;;32.22;14.77;;;10.20;99.90;;;;;;4937577;29;20634;-77
2021/12/24 09:20:38;;;;;;;38.67;16.08;;;10.20;99.90;;;;;;4936778;29;20171;-77
2021/12/24 09:23:05;;;;;;;34.17;16.50;;;10.30;99.90;;;;;;4951700;28;20191;-78
2021/12/24 09:25:32;;;;;;;34.38;15.57;;;10.30;99.90;;;;;;4937151;29;20254;-78
2021/12/24 09:27:59;;;;;;;35.05;15.65;;;10.40;99.90;;;;;;4936918;29;20187;-79
2021/12/24 09:30:26;;;;;;;39.72;17.38;;;10.40;99.90;;;;;;4937866;29;20189;-77
2021/12/24 09:32:52;;;;;;;36.40;16.70;;;10.30;99.90;;;;;;4936850;29;20542;-78
2021/12/24 09:35:19;;;;;;;37.08;16.23;;;10.30;99.90;;;;;;4936836;29;20671;-77
2021/12/24 09:37:44;;;;;;;40.15;17.30;;;10.50;99.90;;;;;;4937539;29;20556;-78
2021/12/24 09:40:12;;;;;;;32.08;15.63;;;10.60;99.90;;;;;;4937445;29;20167;-79
2021/12/24 09:42:39;;;;;;;41.25;15.57;;;10.60;99.90;;;;;;4936600;29;20647;-78
2021/12/24 09:45:06;;;;;;;33.78;14.80;;;10.60;99.90;;;;;;4936645;29;20652;-77
2021/12/24 09:47:32;;;;;;;27.30;14.48;;;10.60;99.90;;;;;;4936540;29;20258;-78
2021/12/24 09:49:59;;;;;;;40.33;13.60;;;10.50;99.90;;;;;;4936711;29;20218;-77
2021/12/24 09:52:27;;;;;;;19.88;13.13;;;10.70;99.90;;;;;;4936650;29;20243;-78
2021/12/24 09:54:52;;;;;;;33.60;13.82;;;10.80;99.90;;;;;;4937702;29;20246;-78
2021/12/24 09:57:18;;;;;;;28.10;13.00;;;10.50;99.90;;;;;;4936779;29;20282;-77
2021/12/24 09:59:44;;;;;;;27.92;14.00;;;10.60;99.90;;;;;;4939677;29;20223;-79
2021/12/24 10:02:16;;;;;;;33.42;14.15;;;10.40;99.90;;;;;;4937502;29;20199;-79
2021/12/24 10:04:44;;;;;;;29.73;13.98;;;10.20;99.90;;;;;;4938020;29;20175;-78
2021/12/24 10:07:12;;;;;;;26.48;13.88;;;10.40;99.90;;;;;;4936524;29;20195;-76
2021/12/24 10:09:46;;;;;;;54.58;14.20;;;10.50;99.90;;;;;;4935637;29;20205;-78
2021/12/24 10:12:18;;;;;;;24.67;13.23;;;10.60;99.90;;;;;;4943313;29;20214;-82
2021/12/24 10:14:59;;;;;;;28.02;14.63;;;10.60;99.90;;;;;;4954052;28;20178;-78
2021/12/24 10:17:28;;;;;;;27.77;12.40;;;10.50;99.90;;;;;;4954591;28;20174;-79
2021/12/24 10:19:59;;;;;;;20.98;12.13;;;10.50;99.90;;;;;;4954360;28;20249;-79
2021/12/24 10:22:25;;;;;;;30.75;14.15;;;10.40;99.90;;;;;;4955482;28;20171;-79
2021/12/24 10:25:05;;;;;;;21.60;12.18;;;10.50;99.90;;;;;;4955092;28;20632;-77
2021/12/24 10:27:33;;;;;;;20.17;11.98;;;10.30;99.90;;;;;;4955498;28;20191;-78
2021/12/24 10:29:59;;;;;;;20.67;11.00;;;10.30;99.90;;;;;;4955107;28;20158;-79
2021/12/24 10:32:25;;;;;;;31.35;11.07;;;10.40;99.90;;;;;;4954996;28;20265;-78
2021/12/24 10:34:50;;;;;;;30.65;11.10;;;10.40;99.90;;;;;;4955082;28;20158;-78
2021/12/24 10:37:19;;;;;;;23.98;12.35;;;10.40;99.90;;;;;;4955457;28;20178;-79
2021/12/24 10:39:48;;;;;;;22.35;11.63;;;10.20;99.90;;;;;;4953767;28;20609;-78
2021/12/24 10:42:22;;;;;;;18.85;11.32;;;10.40;99.90;;;;;;4955073;28;20253;-78
2021/12/24 10:44:50;;;;;;;25.40;13.00;;;10.50;99.90;;;;;;4964195;28;20163;-77
2021/12/24 10:47:28;;;;;;;30.88;11.63;;;10.50;99.90;;;;;;4972908;28;20174;-78
2021/12/24 10:53:00;;;;;;;22.83;12.43;;;10.60;99.90;;;;;;4935482;29;20230;-81
2021/12/24 10:55:31;;;;;;;28.45;11.43;;;10.60;99.90;;;;;;4935976;29;20183;-79
2021/12/24 10:57:59;;;;;;;22.05;12.25;;;10.50;99.90;;;;;;4935608;29;20552;-77
2021/12/24 11:00:38;;;;;;;27.13;11.38;;;10.50;99.90;;;;;;4935477;29;20167;-78
2021/12/24 11:03:21;;;;;;;16.42;10.90;;;10.60;99.90;;;;;;4935602;29;20187;-79
2021/12/24 11:05:49;;;;;;;20.23;11.73;;;10.80;99.90;;;;;;4943048;29;20179;-78
2021/12/24 11:08:19;;;;;;;19.08;10.52;;;11.00;99.90;;;;;;4935480;29;20249;-79
2021/12/24 11:10:50;;;;;;;23.70;11.02;;;11.10;99.90;;;;;;4936151;29;20198;-79
2021/12/24 11:13:18;;;;;;;28.65;10.43;;;11.10;99.90;;;;;;4938625;28;20179;-79
2021/12/24 11:15:48;;;;;;;28.52;10.18;;;11.10;99.90;;;;;;4970631;28;20175;-78
2021/12/24 11:18:21;;;;;;;16.10;9.30;;;11.10;99.90;;;;;;4943699;29;20254;-80
2021/12/24 11:21:18;;;;;;;16.42;9.40;;;10.80;99.90;;;;;;4939847;29;20167;-81
2021/12/24 11:23:43;;;;;;;21.83;10.07;;;10.90;99.90;;;;;;4971545;28;20194;-81
2021/12/24 11:26:15;;;;;;;18.33;9.93;;;10.90;99.90;;;;;;4974529;28;20176;-81
2021/12/24 11:28:42;;;;;;;22.10;10.43;;;11.10;99.90;;;;;;4937940;29;20270;-80
2021/12/24 11:31:10;;;;;;;19.38;10.13;;;11.30;99.90;;;;;;4938287;29;20321;-81
2021/12/24 11:33:38;;;;;;;21.63;9.30;;;11.40;99.90;;;;;;4935518;29;20217;-79
2021/12/24 11:36:08;;;;;;;18.90;9.35;;;11.30;99.90;;;;;;4937129;29;20175;-81
2021/12/24 11:38:46;;;;;;;26.85;11.40;;;11.20;99.90;;;;;;4936823;29;20210;-78
2021/12/24 11:41:14;;;;;;;15.65;9.23;;;10.90;99.90;;;;;;4938560;29;20540;-80
2021/12/24 11:43:43;;;;;;;18.23;8.60;;;10.80;99.90;;;;;;4940076;29;20654;-79
2021/12/24 11:46:10;;;;;;;10.98;8.77;;;10.80;99.90;;;;;;4938953;29;20191;-80
2021/12/24 11:48:37;;;;;;;15.68;9.25;;;10.70;99.90;;;;;;4936237;29;20221;-80
2021/12/24 11:51:09;;;;;;;18.77;9.02;;;10.90;99.90;;;;;;4934956;29;20293;-81
2021/12/24 11:53:37;;;;;;;19.50;9.48;;;10.80;99.90;;;;;;4933784;29;20223;-81
2021/12/24 11:56:07;;;;;;;20.30;9.82;;;11.00;99.90;;;;;;4934877;29;20499;-81
2021/12/24 11:58:32;;;;;;;20.27;10.20;;;11.10;99.90;;;;;;4934989;29;20277;-78
2021/12/24 12:01:04;;;;;;;22.38;9.77;;;11.10;99.90;;;;;;4949690;29;20282;-80
2021/12/24 12:03:34;;;;;;;20.50;9.65;;;11.30;99.90;;;;;;4934633;29;20159;-81
2021/12/24 12:06:04;;;;;;;25.23;10.23;;;11.40;99.90;;;;;;4934736;29;20540;-80
2021/12/24 12:08:33;;;;;;;16.52;9.82;;;11.50;99.90;;;;;;4932937;29;20191;-81
2021/12/24 12:11:29;;;;;;;23.80;10.27;;;11.60;99.90;;;;;;4933716;29;20250;-80
2021/12/24 12:14:04;;;;;;;20.23;8.68;;;11.50;99.90;;;;;;4930946;29;20194;-80
2021/12/24 12:16:42;;;;;;;13.10;8.82;;;11.40;99.90;;;;;;4934843;29;20202;-81
2021/12/24 12:19:31;;;;;;;25.13;9.90;;;11.40;99.90;;;;;;4934714;29;20257;-81
2021/12/24 12:25:00;;;;;;;13.30;9.50;;;11.70;99.90;;;;;;4935055;29;20322;-81
2021/12/24 12:27:38;;;;;;;21.75;10.63;;;11.90;99.90;;;;;;4934926;29;20254;-80
2021/12/24 12:30:31;;;;;;;13.70;9.88;;;12.00;99.90;;;;;;4935012;29;20629;-80
2021/12/24 12:33:13;;;;;;;22.70;10.63;;;12.00;99.90;;;;;;4934435;28;20191;-80
2021/12/24 12:35:45;;;;;;;25.00;10.77;;;12.00;99.90;;;;;;4934825;29;20194;-79
2021/12/24 12:38:29;;;;;;;18.73;10.43;;;12.10;99.90;;;;;;4934780;29;20235;-79
2021/12/24 12:41:26;;;;;;;15.38;9.00;;;11.70;99.90;;;;;;4935919;29;20209;-78
2021/12/24 12:43:54;;;;;;;16.52;9.68;;;11.60;99.90;;;;;;4947806;29;20198;-79
2021/12/24 12:46:31;;;;;;;18.73;10.23;;;11.50;99.90;;;;;;4956573;29;20263;-79
2021/12/24 12:49:03;;;;;;;17.73;8.82;;;11.60;99.90;;;;;;4957635;28;20662;-80
2021/12/24 12:51:51;;;;;;;22.40;10.60;;;11.80;99.90;;;;;;4971730;28;20218;-78
2021/12/24 12:54:36;;;;;;;18.60;9.75;;;11.80;99.90;;;;;;4957364;28;20183;-80
2021/12/24 12:57:16;;;;;;;19.25;9.27;;;11.90;99.90;;;;;;4957004;29;20535;-78
2021/12/24 13:00:08;;;;;;;24.38;10.82;;;11.90;99.90;;;;;;4956951;28;20192;-79
2021/12/24 13:03:06;;;;;;;22.05;9.73;;;11.80;99.90;;;;;;4956805;28;20218;-79
2021/12/24 13:05:38;;;;;;;19.40;10.55;;;11.90;99.90;;;;;;4956558;28;20201;-79
2021/12/24 13:08:12;;;;;;;23.33;10.63;;;12.00;99.90;;;;;;4956856;28;20191;-80
2021/12/24 13:10:39;;;;;;;20.58;10.70;;;12.00;99.90;;;;;;4957323;28;20264;-78
2021/12/24 13:13:06;;;;;;;22.95;9.85;;;12.00;99.90;;;;;;4956840;28;20683;-79
2021/12/24 13:15:46;;;;;;;25.13;11.27;;;12.10;99.90;;;;;;4956652;28;20291;-79
2021/12/24 13:18:24;;;;;;;23.75;10.30;;;12.20;99.90;;;;;;4955206;28;20194;-78
2021/12/24 13:23:37;;;;;;;15.27;9.98;;;12.30;99.90;;;;;;4956135;29;20193;-81
2021/12/24 13:26:15;;;;;;;19.85;9.50;;;12.40;99.90;;;;;;4955743;28;20167;-79
2021/12/24 13:29:03;;;;;;;17.10;10.65;;;12.50;99.90;;;;;;4956147;28;20186;-80
2021/12/24 13:31:30;;;;;;;24.33;10.90;;;12.50;99.90;;;;;;4955667;28;20217;-79
2021/12/24 13:33:56;;;;;;;15.35;9.90;;;12.50;99.90;;;;;;4956072;28;20163;-80
2021/12/24 13:36:28;;;;;;;11.45;8.93;;;12.50;99.90;;;;;;4956998;29;20179;-81
2021/12/24 13:39:04;;;;;;;14.10;10.13;;;12.50;99.90;;;;;;4956954;28;20273;-80
2021/12/24 13:41:31;;;;;;;17.02;9.63;;;12.50;99.90;;;;;;4957063;28;20167;-81
2021/12/24 13:43:58;;;;;;;15.40;10.55;;;12.20;99.90;;;;;;4957600;29;20173;-79
2021/12/24 13:46:25;;;;;;;18.23;10.80;;;12.20;99.90;;;;;;4956687;28;20186;-79
2021/12/24 13:49:15;;;;;;;17.60;10.48;;;12.20;99.90;;;;;;4957009;28;20206;-79
2021/12/24 13:54:34;;;;;;;11.95;10.40;;;12.20;99.90;;;;;;4958089;29;20666;-79
2021/12/24 13:57:03;;;;;;;16.15;9.98;;;12.20;99.90;;;;;;4969276;28;20185;-79
2021/12/24 13:59:29;;;;;;;18.02;10.57;;;12.00;99.90;;;;;;4971016;29;20178;-79
2021/12/24 14:01:55;;;;;;;20.65;11.25;;;11.90;99.90;;;;;;4965231;28;20197;-80
2021/12/24 14:04:22;;;;;;;20.08;11.13;;;11.90;99.90;;;;;;4965739;28;20183;-80
2021/12/24 14:06:55;;;;;;;19.40;10.88;;;12.00;99.90;;;;;;4956954;28;20218;-78
2021/12/24 14:09:33;;;;;;;20.20;11.20;;;12.10;99.90;;;;;;4955736;28;20196;-82
2021/12/24 14:12:00;;;;;;;19.45;10.93;;;12.10;99.90;;;;;;4954097;28;20707;-78
2021/12/24 14:14:41;;;;;;;14.98;11.30;;;12.10;99.90;;;;;;4956038;28;20166;-79
2021/12/24 14:20:09;;;;;;;18.05;11.00;;;12.40;99.90;;;;;;4955904;28;20607;-80
2021/12/24 14:22:34;;;;;;;20.15;11.07;;;12.40;99.90;;;;;;4955543;28;20174;-81
2021/12/24 14:25:07;;;;;;;18.38;11.05;;;12.20;99.90;;;;;;4955344;28;20170;-81
2021/12/24 14:27:34;;;;;;;17.67;10.85;;;12.30;99.90;;;;;;4955782;28;20202;-85